logo
Search for airport 
image banner adimage banner adimage banner ad
image banner ad

LOLM - Micheldorf

Located in District Kirchdorf, Austria

ICAO - LOLM, IATA -

Data provided by Airmate  

General information

Coordinates: N47°52'13" E14°7'27"
Elevation is 1509 feet MSL.
 
View others Airports in Upper Austria

Operational data

Special qualification required
Current time UTC:
Current local time:
Weather at : LOXA - Aigen ( 37 km )
TAF: TAF LOXA 171115Z 1712/1721 VRB05KT 9999 -SHRA FEW005 SCT020 BKN040 TEMPO 1712/1721 24010KT 8000 SHRA SCT015 BKN030TCU
View NOTAMs / SUP AIP / TFR affecting this airport [VIEW]
Communications frequencies: [VIEW]

Runways:

RWY identifierQFULength (ft)Width (ft)SurfaceLDA (ft)
13152698GRASS
31152698GRASS
14152698UNK
32152698UNK

Airport contact information

Address: District Kirchdorf Austria

Satellite view of LOLM